sensor_id;sensor_type;location;lat;lon;timestamp;P1;durP1;ratioP1;P2;durP2;ratioP2
71162;SDS011;58858;50.948;6.566;2023-10-19T00:08:51;8.38;;;6.22;;
71162;SDS011;58858;50.948;6.566;2023-10-19T00:18:53;12.02;;;7.28;;
71162;SDS011;58858;50.948;6.566;2023-10-19T00:28:54;10.15;;;6.53;;
71162;SDS011;58858;50.948;6.566;2023-10-19T00:38:58;9.65;;;5.85;;
71162;SDS011;58858;50.948;6.566;2023-10-19T00:49:01;8.30;;;6.00;;
71162;SDS011;58858;50.948;6.566;2023-10-19T00:59:06;7.37;;;4.77;;
71162;SDS011;58858;50.948;6.566;2023-10-19T01:09:20;10.95;;;6.15;;
71162;SDS011;58858;50.948;6.566;2023-10-19T01:19:21;8.30;;;5.43;;
71162;SDS011;58858;50.948;6.566;2023-10-19T01:29:23;6.95;;;5.20;;
71162;SDS011;58858;50.948;6.566;2023-10-19T01:39:27;7.90;;;5.60;;
71162;SDS011;58858;50.948;6.566;2023-10-19T01:49:28;8.25;;;5.45;;
71162;SDS011;58858;50.948;6.566;2023-10-19T01:59:30;8.68;;;5.93;;
71162;SDS011;58858;50.948;6.566;2023-10-19T02:09:32;11.07;;;7.35;;
71162;SDS011;58858;50.948;6.566;2023-10-19T02:19:33;10.10;;;6.20;;
71162;SDS011;58858;50.948;6.566;2023-10-19T02:29:34;10.35;;;6.57;;
71162;SDS011;58858;50.948;6.566;2023-10-19T02:39:36;8.63;;;6.15;;
71162;SDS011;58858;50.948;6.566;2023-10-19T02:49:38;8.43;;;5.50;;
71162;SDS011;58858;50.948;6.566;2023-10-19T02:59:40;7.88;;;6.25;;
71162;SDS011;58858;50.948;6.566;2023-10-19T03:09:41;8.23;;;5.07;;
71162;SDS011;58858;50.948;6.566;2023-10-19T03:19:54;7.25;;;4.78;;
71162;SDS011;58858;50.948;6.566;2023-10-19T03:29:56;5.57;;;4.43;;
71162;SDS011;58858;50.948;6.566;2023-10-19T03:40:00;6.20;;;3.75;;
71162;SDS011;58858;50.948;6.566;2023-10-19T03:50:07;7.10;;;4.63;;
71162;SDS011;58858;50.948;6.566;2023-10-19T04:00:14;5.10;;;3.35;;
71162;SDS011;58858;50.948;6.566;2023-10-19T04:10:17;6.53;;;4.75;;
71162;SDS011;58858;50.948;6.566;2023-10-19T04:20:36;6.30;;;4.63;;
71162;SDS011;58858;50.948;6.566;2023-10-19T04:30:53;6.45;;;4.88;;
71162;SDS011;58858;50.948;6.566;2023-10-19T04:40:54;6.60;;;5.03;;
71162;SDS011;58858;50.948;6.566;2023-10-19T04:50:55;8.75;;;5.65;;
71162;SDS011;58858;50.948;6.566;2023-10-19T05:00:57;7.03;;;4.80;;
71162;SDS011;58858;50.948;6.566;2023-10-19T05:10:59;7.57;;;5.18;;
71162;SDS011;58858;50.948;6.566;2023-10-19T05:21:00;9.73;;;4.97;;
71162;SDS011;58858;50.948;6.566;2023-10-19T05:31:01;9.80;;;3.70;;
71162;SDS011;58858;50.948;6.566;2023-10-19T05:41:04;7.00;;;3.90;;
71162;SDS011;58858;50.948;6.566;2023-10-19T05:51:05;5.70;;;3.65;;
71162;SDS011;58858;50.948;6.566;2023-10-19T06:01:07;6.22;;;3.88;;
71162;SDS011;58858;50.948;6.566;2023-10-19T06:11:08;6.63;;;3.70;;
71162;SDS011;58858;50.948;6.566;2023-10-19T06:21:09;5.63;;;3.60;;
71162;SDS011;58858;50.948;6.566;2023-10-19T06:31:10;8.88;;;4.57;;
71162;SDS011;58858;50.948;6.566;2023-10-19T06:41:12;6.95;;;3.72;;
71162;SDS011;58858;50.948;6.566;2023-10-19T06:51:14;9.40;;;4.20;;
71162;SDS011;58858;50.948;6.566;2023-10-19T07:01:17;8.15;;;3.53;;
71162;SDS011;58858;50.948;6.566;2023-10-19T07:11:19;12.77;;;3.60;;
71162;SDS011;58858;50.948;6.566;2023-10-19T07:21:20;6.70;;;3.55;;
71162;SDS011;58858;50.948;6.566;2023-10-19T07:31:21;11.50;;;6.22;;
71162;SDS011;58858;50.948;6.566;2023-10-19T07:41:22;8.05;;;4.95;;
71162;SDS011;58858;50.948;6.566;2023-10-19T07:51:23;5.57;;;4.03;;
71162;SDS011;58858;50.948;6.566;2023-10-19T08:01:24;10.68;;;4.15;;
71162;SDS011;58858;50.948;6.566;2023-10-19T08:11:26;5.57;;;3.88;;
71162;SDS011;58858;50.948;6.566;2023-10-19T08:21:27;16.05;;;4.97;;
71162;SDS011;58858;50.948;6.566;2023-10-19T08:31:29;8.68;;;3.67;;
71162;SDS011;58858;50.948;6.566;2023-10-19T08:41:30;7.90;;;3.38;;
71162;SDS011;58858;50.948;6.566;2023-10-19T08:51:32;7.53;;;3.35;;
71162;SDS011;58858;50.948;6.566;2023-10-19T09:01:33;6.10;;;3.38;;
71162;SDS011;58858;50.948;6.566;2023-10-19T09:11:35;5.80;;;2.28;;
71162;SDS011;58858;50.948;6.566;2023-10-19T09:21:37;4.75;;;2.53;;
71162;SDS011;58858;50.948;6.566;2023-10-19T09:31:40;8.57;;;1.75;;
71162;SDS011;58858;50.948;6.566;2023-10-19T09:41:42;7.80;;;1.70;;
71162;SDS011;58858;50.948;6.566;2023-10-19T09:51:43;6.25;;;1.80;;
71162;SDS011;58858;50.948;6.566;2023-10-19T10:02:04;4.32;;;1.50;;
71162;SDS011;58858;50.948;6.566;2023-10-19T10:12:24;8.45;;;2.28;;
71162;SDS011;58858;50.948;6.566;2023-10-19T10:22:27;14.75;;;1.77;;
71162;SDS011;58858;50.948;6.566;2023-10-19T10:42:49;8.30;;;2.60;;
71162;SDS011;58858;50.948;6.566;2023-10-19T10:53:05;4.20;;;1.60;;
71162;SDS011;58858;50.948;6.566;2023-10-19T11:03:06;7.57;;;2.55;;
71162;SDS011;58858;50.948;6.566;2023-10-19T11:13:08;14.38;;;2.53;;
71162;SDS011;58858;50.948;6.566;2023-10-19T11:23:11;8.40;;;1.52;;
71162;SDS011;58858;50.948;6.566;2023-10-19T11:33:13;7.63;;;2.22;;
71162;SDS011;58858;50.948;6.566;2023-10-19T11:43:14;7.45;;;2.47;;
71162;SDS011;58858;50.948;6.566;2023-10-19T11:53:15;6.57;;;2.08;;
71162;SDS011;58858;50.948;6.566;2023-10-19T12:03:16;5.57;;;1.73;;
71162;SDS011;58858;50.948;6.566;2023-10-19T12:13:19;5.53;;;1.85;;
71162;SDS011;58858;50.948;6.566;2023-10-19T12:23:20;8.00;;;2.30;;
71162;SDS011;58858;50.948;6.566;2023-10-19T12:43:27;5.35;;;1.70;;
71162;SDS011;58858;50.948;6.566;2023-10-19T12:53:30;6.47;;;1.85;;
71162;SDS011;58858;50.948;6.566;2023-10-19T13:03:31;6.32;;;2.20;;
71162;SDS011;58858;50.948;6.566;2023-10-19T13:13:33;4.68;;;1.65;;
71162;SDS011;58858;50.948;6.566;2023-10-19T13:23:36;13.07;;;4.00;;
71162;SDS011;58858;50.948;6.566;2023-10-19T13:33:37;7.20;;;1.90;;
71162;SDS011;58858;50.948;6.566;2023-10-19T13:43:39;9.30;;;1.80;;
71162;SDS011;58858;50.948;6.566;2023-10-19T13:53:41;6.50;;;1.77;;
71162;SDS011;58858;50.948;6.566;2023-10-19T14:03:42;9.75;;;2.13;;
71162;SDS011;58858;50.948;6.566;2023-10-19T14:13:43;5.53;;;1.40;;
71162;SDS011;58858;50.948;6.566;2023-10-19T14:23:45;6.55;;;2.00;;
71162;SDS011;58858;50.948;6.566;2023-10-19T14:33:46;5.82;;;1.90;;
71162;SDS011;58858;50.948;6.566;2023-10-19T14:43:47;8.80;;;1.98;;
71162;SDS011;58858;50.948;6.566;2023-10-19T14:53:48;6.85;;;2.90;;
71162;SDS011;58858;50.948;6.566;2023-10-19T15:03:50;8.20;;;3.33;;
71162;SDS011;58858;50.948;6.566;2023-10-19T15:13:51;8.30;;;2.80;;
71162;SDS011;58858;50.948;6.566;2023-10-19T15:23:52;6.20;;;3.00;;
71162;SDS011;58858;50.948;6.566;2023-10-19T15:33:53;8.57;;;3.50;;
71162;SDS011;58858;50.948;6.566;2023-10-19T15:43:54;9.07;;;4.13;;
71162;SDS011;58858;50.948;6.566;2023-10-19T15:53:56;14.93;;;5.82;;
71162;SDS011;58858;50.948;6.566;2023-10-19T16:03:57;6.28;;;3.65;;
71162;SDS011;58858;50.948;6.566;2023-10-19T16:13:58;10.80;;;5.50;;
71162;SDS011;58858;50.948;6.566;2023-10-19T16:23:59;7.75;;;4.82;;
71162;SDS011;58858;50.948;6.566;2023-10-19T16:34:00;10.55;;;4.43;;
71162;SDS011;58858;50.948;6.566;2023-10-19T16:44:03;12.52;;;5.03;;
71162;SDS011;58858;50.948;6.566;2023-10-19T16:54:12;8.60;;;4.82;;
71162;SDS011;58858;50.948;6.566;2023-10-19T17:04:14;12.23;;;5.80;;
71162;SDS011;58858;50.948;6.566;2023-10-19T17:14:15;10.45;;;5.45;;
71162;SDS011;58858;50.948;6.566;2023-10-19T17:24:19;11.18;;;5.80;;
71162;SDS011;58858;50.948;6.566;2023-10-19T17:34:20;6.95;;;5.25;;
71162;SDS011;58858;50.948;6.566;2023-10-19T17:44:22;10.82;;;5.60;;
71162;SDS011;58858;50.948;6.566;2023-10-19T17:54:23;8.93;;;4.57;;
71162;SDS011;58858;50.948;6.566;2023-10-19T18:04:24;9.18;;;5.80;;
71162;SDS011;58858;50.948;6.566;2023-10-19T18:14:26;8.45;;;5.75;;
71162;SDS011;58858;50.948;6.566;2023-10-19T18:24:28;8.80;;;5.72;;
71162;SDS011;58858;50.948;6.566;2023-10-19T18:34:32;9.05;;;5.72;;
71162;SDS011;58858;50.948;6.566;2023-10-19T18:44:35;7.55;;;5.00;;
71162;SDS011;58858;50.948;6.566;2023-10-19T18:54:36;8.60;;;5.10;;
71162;SDS011;58858;50.948;6.566;2023-10-19T19:04:38;9.27;;;5.80;;
71162;SDS011;58858;50.948;6.566;2023-10-19T19:14:39;10.98;;;5.57;;
71162;SDS011;58858;50.948;6.566;2023-10-19T19:24:40;8.52;;;5.32;;
71162;SDS011;58858;50.948;6.566;2023-10-19T19:34:43;8.35;;;5.97;;
71162;SDS011;58858;50.948;6.566;2023-10-19T19:44:46;7.60;;;5.30;;
71162;SDS011;58858;50.948;6.566;2023-10-19T19:54:47;7.43;;;5.65;;
71162;SDS011;58858;50.948;6.566;2023-10-19T20:04:50;6.40;;;5.00;;
71162;SDS011;58858;50.948;6.566;2023-10-19T20:14:51;7.45;;;5.70;;
71162;SDS011;58858;50.948;6.566;2023-10-19T20:24:52;9.70;;;5.97;;
71162;SDS011;58858;50.948;6.566;2023-10-19T20:34:53;7.60;;;6.13;;
71162;SDS011;58858;50.948;6.566;2023-10-19T20:44:54;8.93;;;5.57;;
71162;SDS011;58858;50.948;6.566;2023-10-19T20:54:55;9.32;;;6.47;;
71162;SDS011;58858;50.948;6.566;2023-10-19T21:04:58;19.67;;;11.23;;
71162;SDS011;58858;50.948;6.566;2023-10-19T21:14:59;13.45;;;9.93;;
71162;SDS011;58858;50.948;6.566;2023-10-19T21:25:00;12.98;;;8.20;;
71162;SDS011;58858;50.948;6.566;2023-10-19T21:35:01;10.45;;;8.10;;
71162;SDS011;58858;50.948;6.566;2023-10-19T21:45:02;10.98;;;8.50;;
71162;SDS011;58858;50.948;6.566;2023-10-19T21:55:03;11.00;;;7.70;;
71162;SDS011;58858;50.948;6.566;2023-10-19T22:05:05;9.30;;;6.57;;
71162;SDS011;58858;50.948;6.566;2023-10-19T22:15:07;8.13;;;6.15;;
71162;SDS011;58858;50.948;6.566;2023-10-19T22:25:08;9.00;;;6.95;;
71162;SDS011;58858;50.948;6.566;2023-10-19T22:35:10;17.77;;;9.80;;
71162;SDS011;58858;50.948;6.566;2023-10-19T22:45:12;13.30;;;9.68;;
71162;SDS011;58858;50.948;6.566;2023-10-19T22:55:13;16.58;;;11.35;;
71162;SDS011;58858;50.948;6.566;2023-10-19T23:05:15;15.50;;;11.15;;
71162;SDS011;58858;50.948;6.566;2023-10-19T23:15:19;16.03;;;10.70;;
71162;SDS011;58858;50.948;6.566;2023-10-19T23:25:31;12.63;;;9.45;;
71162;SDS011;58858;50.948;6.566;2023-10-19T23:35:33;14.35;;;10.45;;
71162;SDS011;58858;50.948;6.566;2023-10-19T23:45:38;11.50;;;9.73;;
71162;SDS011;58858;50.948;6.566;2023-10-19T23:55:39;14.73;;;9.95;;
